createdAt,value
2018-10-11T08:35:30.000Z,22
2018-10-11T08:36:32.000Z,22
2018-10-11T08:37:38.000Z,22
2018-10-11T08:38:31.000Z,22
2018-10-11T08:42:31.000Z,22
2018-10-11T08:43:31.000Z,22
2018-10-11T08:44:31.000Z,21
2018-10-11T08:45:30.000Z,22
2018-10-11T08:46:32.000Z,22
2018-10-11T08:47:31.000Z,22
2018-10-11T08:48:29.000Z,22
2018-10-11T08:49:29.000Z,22
2018-10-11T08:50:29.000Z,22
2018-10-11T08:51:28.000Z,23
2018-10-11T08:52:29.000Z,23
2018-10-11T08:53:29.000Z,22
2018-10-11T08:54:29.000Z,23
2018-10-11T08:55:28.000Z,23
2018-10-11T08:56:30.000Z,22
2018-10-11T08:57:31.000Z,23
2018-10-11T09:14:27.000Z,21
2018-10-11T09:14:58.000Z,21
2018-10-11T09:15:26.000Z,21
2018-10-11T09:16:27.000Z,21
2018-10-11T09:17:27.000Z,20
2018-10-11T09:18:27.000Z,20
2018-10-11T09:19:27.000Z,20
2018-10-11T09:20:27.000Z,21
2018-10-11T09:21:28.000Z,20
2018-10-11T09:22:28.000Z,20
2018-10-11T09:23:27.000Z,19
2018-10-11T09:24:27.000Z,21
2018-10-11T09:25:27.000Z,23
2018-10-11T09:26:27.000Z,22
2018-10-11T09:27:27.000Z,21
2018-10-11T09:28:27.000Z,22
2018-10-11T09:29:28.000Z,22
2018-10-11T09:30:28.000Z,22
2018-10-11T09:31:28.000Z,22
2018-10-11T09:32:28.000Z,21
2018-10-11T09:33:27.000Z,21
2018-10-11T09:34:27.000Z,21
2018-10-11T09:35:27.000Z,21
2018-10-11T09:36:27.000Z,22
2018-10-11T09:37:28.000Z,22
2018-10-11T09:38:27.000Z,22
2018-10-11T09:39:28.000Z,22
2018-10-11T09:40:27.000Z,23
2018-10-11T09:41:27.000Z,23
2018-10-11T09:42:27.000Z,24
2018-10-11T09:43:27.000Z,24
2018-10-11T09:44:27.000Z,23
2018-10-11T09:45:27.000Z,23
2018-10-11T09:46:27.000Z,22
2018-10-11T09:48:29.000Z,22
2018-10-11T09:49:27.000Z,22
2018-10-11T09:59:27.000Z,24
2018-10-11T10:00:27.000Z,23
2018-10-11T10:01:27.000Z,23
2018-10-11T10:02:27.000Z,23
2018-10-11T10:03:27.000Z,22
2018-10-11T10:07:27.000Z,24
2018-10-11T10:08:27.000Z,24
2018-10-11T10:09:28.000Z,24
2018-10-11T10:10:27.000Z,24
2018-10-11T10:11:27.000Z,24
2018-10-11T10:12:27.000Z,25
2018-10-11T10:13:27.000Z,25
2018-10-11T10:14:27.000Z,25
2018-10-11T10:15:27.000Z,25
2018-10-11T10:16:27.000Z,25
2018-10-11T10:17:27.000Z,25
2018-10-11T10:18:27.000Z,25
2018-10-11T10:19:27.000Z,25
2018-10-11T10:20:28.000Z,25
2018-10-11T10:21:27.000Z,25
2018-10-11T10:22:27.000Z,25
2018-10-11T10:23:27.000Z,25
2018-10-11T10:24:27.000Z,25
2018-10-11T10:29:28.000Z,26
2018-10-11T10:30:27.000Z,26
2018-10-11T10:31:27.000Z,26
2018-10-11T10:32:27.000Z,27
